sensor_id;sensor_type;location;lat;lon;timestamp;P1;durP1;ratioP1;P2;durP2;ratioP2
12776;SDS011;6452;41.572;23.732;2024-03-06T00:02:06;2.38;;;2.20;;
12776;SDS011;6452;41.572;23.732;2024-03-06T00:04:33;2.00;;;1.90;;
12776;SDS011;6452;41.572;23.732;2024-03-06T00:06:59;2.30;;;2.20;;
12776;SDS011;6452;41.572;23.732;2024-03-06T00:09:25;2.22;;;2.13;;
12776;SDS011;6452;41.572;23.732;2024-03-06T00:11:54;2.30;;;2.10;;
12776;SDS011;6452;41.572;23.732;2024-03-06T00:14:20;2.03;;;1.92;;
12776;SDS011;6452;41.572;23.732;2024-03-06T00:16:49;2.35;;;2.15;;
12776;SDS011;6452;41.572;23.732;2024-03-06T00:19:16;2.30;;;2.20;;
12776;SDS011;6452;41.572;23.732;2024-03-06T00:21:42;3.78;;;2.75;;
12776;SDS011;6452;41.572;23.732;2024-03-06T00:24:08;3.72;;;3.05;;
12776;SDS011;6452;41.572;23.732;2024-03-06T00:26:34;3.03;;;2.83;;
12776;SDS011;6452;41.572;23.732;2024-03-06T00:29:00;4.72;;;3.35;;
12776;SDS011;6452;41.572;23.732;2024-03-06T00:31:26;4.57;;;4.07;;
12776;SDS011;6452;41.572;23.732;2024-03-06T00:33:52;10.27;;;7.30;;
12776;SDS011;6452;41.572;23.732;2024-03-06T00:36:18;5.18;;;4.68;;
12776;SDS011;6452;41.572;23.732;2024-03-06T00:38:45;5.47;;;4.50;;
12776;SDS011;6452;41.572;23.732;2024-03-06T00:41:11;5.38;;;4.88;;
12776;SDS011;6452;41.572;23.732;2024-03-06T00:43:37;5.53;;;5.03;;
12776;SDS011;6452;41.572;23.732;2024-03-06T00:46:03;5.25;;;4.75;;
12776;SDS011;6452;41.572;23.732;2024-03-06T00:48:29;5.32;;;4.82;;
12776;SDS011;6452;41.572;23.732;2024-03-06T00:50:55;4.70;;;4.30;;
12776;SDS011;6452;41.572;23.732;2024-03-06T00:53:21;7.38;;;5.00;;
12776;SDS011;6452;41.572;23.732;2024-03-06T00:55:47;6.40;;;5.32;;
12776;SDS011;6452;41.572;23.732;2024-03-06T00:58:13;5.93;;;5.15;;
12776;SDS011;6452;41.572;23.732;2024-03-06T01:00:39;4.97;;;4.47;;
12776;SDS011;6452;41.572;23.732;2024-03-06T01:03:06;6.68;;;5.10;;
12776;SDS011;6452;41.572;23.732;2024-03-06T01:05:32;6.00;;;4.78;;
12776;SDS011;6452;41.572;23.732;2024-03-06T01:07:58;4.18;;;3.78;;
12776;SDS011;6452;41.572;23.732;2024-03-06T01:10:24;5.60;;;4.65;;
12776;SDS011;6452;41.572;23.732;2024-03-06T01:12:50;5.00;;;3.95;;
12776;SDS011;6452;41.572;23.732;2024-03-06T01:15:16;3.72;;;3.53;;
12776;SDS011;6452;41.572;23.732;2024-03-06T01:17:42;4.53;;;4.20;;
12776;SDS011;6452;41.572;23.732;2024-03-06T01:20:08;4.35;;;3.97;;
12776;SDS011;6452;41.572;23.732;2024-03-06T01:22:35;3.90;;;3.60;;
12776;SDS011;6452;41.572;23.732;2024-03-06T01:25:01;3.30;;;2.90;;
12776;SDS011;6452;41.572;23.732;2024-03-06T01:27:27;4.07;;;3.20;;
12776;SDS011;6452;41.572;23.732;2024-03-06T01:29:53;3.08;;;2.88;;
12776;SDS011;6452;41.572;23.732;2024-03-06T01:32:19;6.07;;;2.90;;
12776;SDS011;6452;41.572;23.732;2024-03-06T01:34:45;3.30;;;3.00;;
12776;SDS011;6452;41.572;23.732;2024-03-06T01:37:11;2.58;;;2.47;;
12776;SDS011;6452;41.572;23.732;2024-03-06T01:39:39;3.75;;;2.55;;
12776;SDS011;6452;41.572;23.732;2024-03-06T01:42:05;2.70;;;2.60;;
12776;SDS011;6452;41.572;23.732;2024-03-06T01:44:31;2.83;;;2.63;;
12776;SDS011;6452;41.572;23.732;2024-03-06T01:46:57;3.38;;;2.42;;
12776;SDS011;6452;41.572;23.732;2024-03-06T01:49:23;2.75;;;2.55;;
12776;SDS011;6452;41.572;23.732;2024-03-06T01:51:50;2.95;;;2.70;;
12776;SDS011;6452;41.572;23.732;2024-03-06T01:54:16;3.88;;;3.58;;
12776;SDS011;6452;41.572;23.732;2024-03-06T01:56:44;5.43;;;4.13;;
12776;SDS011;6452;41.572;23.732;2024-03-06T01:59:11;3.35;;;3.05;;
12776;SDS011;6452;41.572;23.732;2024-03-06T02:01:37;6.40;;;4.32;;
12776;SDS011;6452;41.572;23.732;2024-03-06T02:04:03;7.63;;;6.32;;
12776;SDS011;6452;41.572;23.732;2024-03-06T02:06:30;7.30;;;6.60;;
12776;SDS011;6452;41.572;23.732;2024-03-06T02:08:56;10.02;;;9.02;;
12776;SDS011;6452;41.572;23.732;2024-03-06T02:11:22;13.00;;;8.90;;
12776;SDS011;6452;41.572;23.732;2024-03-06T02:13:49;7.13;;;6.43;;
12776;SDS011;6452;41.572;23.732;2024-03-06T02:16:14;7.30;;;6.57;;
12776;SDS011;6452;41.572;23.732;2024-03-06T02:18:53;6.43;;;5.93;;
12776;SDS011;6452;41.572;23.732;2024-03-06T02:21:20;9.23;;;7.72;;
12776;SDS011;6452;41.572;23.732;2024-03-06T02:23:46;17.98;;;10.98;;
12776;SDS011;6452;41.572;23.732;2024-03-06T02:26:12;14.15;;;10.88;;
12776;SDS011;6452;41.572;23.732;2024-03-06T02:28:38;13.15;;;10.00;;
12776;SDS011;6452;41.572;23.732;2024-03-06T02:31:04;18.40;;;12.32;;
12776;SDS011;6452;41.572;23.732;2024-03-06T02:33:32;18.38;;;14.30;;
12776;SDS011;6452;41.572;23.732;2024-03-06T02:35:59;17.02;;;13.30;;
12776;SDS011;6452;41.572;23.732;2024-03-06T02:38:25;13.65;;;11.00;;
12776;SDS011;6452;41.572;23.732;2024-03-06T02:40:51;12.85;;;10.18;;
12776;SDS011;6452;41.572;23.732;2024-03-06T02:43:17;10.85;;;9.75;;
12776;SDS011;6452;41.572;23.732;2024-03-06T02:45:43;10.32;;;9.23;;
12776;SDS011;6452;41.572;23.732;2024-03-06T02:48:10;9.88;;;8.60;;
12776;SDS011;6452;41.572;23.732;2024-03-06T02:50:36;9.77;;;8.77;;
12776;SDS011;6452;41.572;23.732;2024-03-06T02:53:02;9.95;;;8.95;;
12776;SDS011;6452;41.572;23.732;2024-03-06T02:55:28;10.90;;;8.48;;
12776;SDS011;6452;41.572;23.732;2024-03-06T02:57:53;8.93;;;7.90;;
12776;SDS011;6452;41.572;23.732;2024-03-06T03:00:20;8.25;;;7.35;;
12776;SDS011;6452;41.572;23.732;2024-03-06T03:02:46;8.13;;;7.32;;
12776;SDS011;6452;41.572;23.732;2024-03-06T03:05:12;9.10;;;7.90;;
12776;SDS011;6452;41.572;23.732;2024-03-06T03:07:38;8.98;;;8.07;;
12776;SDS011;6452;41.572;23.732;2024-03-06T03:10:04;9.10;;;8.18;;
12776;SDS011;6452;41.572;23.732;2024-03-06T03:12:30;9.25;;;8.23;;
12776;SDS011;6452;41.572;23.732;2024-03-06T03:14:56;11.73;;;8.13;;
12776;SDS011;6452;41.572;23.732;2024-03-06T03:17:22;8.02;;;7.28;;
12776;SDS011;6452;41.572;23.732;2024-03-06T03:19:48;8.45;;;7.45;;
12776;SDS011;6452;41.572;23.732;2024-03-06T03:22:14;7.80;;;6.40;;
12776;SDS011;6452;41.572;23.732;2024-03-06T03:24:43;7.85;;;7.00;;
12776;SDS011;6452;41.572;23.732;2024-03-06T03:27:09;7.25;;;6.50;;
12776;SDS011;6452;41.572;23.732;2024-03-06T03:29:35;6.78;;;6.03;;
12776;SDS011;6452;41.572;23.732;2024-03-06T03:32:01;14.50;;;6.43;;
12776;SDS011;6452;41.572;23.732;2024-03-06T03:34:27;9.40;;;7.45;;
12776;SDS011;6452;41.572;23.732;2024-03-06T03:36:53;10.90;;;9.27;;
12776;SDS011;6452;41.572;23.732;2024-03-06T03:39:20;9.57;;;8.52;;
12776;SDS011;6452;41.572;23.732;2024-03-06T03:41:47;11.00;;;9.18;;
12776;SDS011;6452;41.572;23.732;2024-03-06T03:44:15;13.85;;;11.15;;
12776;SDS011;6452;41.572;23.732;2024-03-06T03:46:41;22.67;;;13.07;;
12776;SDS011;6452;41.572;23.732;2024-03-06T03:49:07;23.65;;;17.13;;
12776;SDS011;6452;41.572;23.732;2024-03-06T03:51:34;18.42;;;13.68;;
12776;SDS011;6452;41.572;23.732;2024-03-06T03:54:00;23.17;;;15.10;;
12776;SDS011;6452;41.572;23.732;2024-03-06T03:56:26;16.95;;;12.13;;
12776;SDS011;6452;41.572;23.732;2024-03-06T03:58:52;12.98;;;9.55;;
12776;SDS011;6452;41.572;23.732;2024-03-06T04:01:18;12.18;;;9.68;;
12776;SDS011;6452;41.572;23.732;2024-03-06T04:03:44;15.80;;;10.40;;
12776;SDS011;6452;41.572;23.732;2024-03-06T04:06:10;11.02;;;9.48;;
12776;SDS011;6452;41.572;23.732;2024-03-06T04:08:36;13.82;;;11.02;;
12776;SDS011;6452;41.572;23.732;2024-03-06T04:11:03;18.40;;;11.00;;
12776;SDS011;6452;41.572;23.732;2024-03-06T04:13:29;12.55;;;10.82;;
12776;SDS011;6452;41.572;23.732;2024-03-06T04:15:55;14.23;;;10.32;;
12776;SDS011;6452;41.572;23.732;2024-03-06T04:18:21;10.48;;;8.85;;
12776;SDS011;6452;41.572;23.732;2024-03-06T04:20:47;9.60;;;8.60;;
12776;SDS011;6452;41.572;23.732;2024-03-06T04:23:13;11.43;;;8.45;;
12776;SDS011;6452;41.572;23.732;2024-03-06T04:25:39;9.73;;;8.07;;
12776;SDS011;6452;41.572;23.732;2024-03-06T04:28:06;10.00;;;8.35;;
12776;SDS011;6452;41.572;23.732;2024-03-06T04:30:35;14.40;;;10.00;;
12776;SDS011;6452;41.572;23.732;2024-03-06T04:33:01;14.40;;;11.35;;
12776;SDS011;6452;41.572;23.732;2024-03-06T04:35:28;15.75;;;12.20;;
12776;SDS011;6452;41.572;23.732;2024-03-06T04:37:54;17.38;;;13.95;;
12776;SDS011;6452;41.572;23.732;2024-03-06T04:40:20;20.83;;;16.48;;
12776;SDS011;6452;41.572;23.732;2024-03-06T04:42:47;14.77;;;12.95;;
12776;SDS011;6452;41.572;23.732;2024-03-06T04:45:15;13.52;;;10.90;;
12776;SDS011;6452;41.572;23.732;2024-03-06T04:47:45;11.10;;;9.98;;
12776;SDS011;6452;41.572;23.732;2024-03-06T04:50:12;11.25;;;9.77;;
12776;SDS011;6452;41.572;23.732;2024-03-06T04:52:39;10.75;;;9.48;;
12776;SDS011;6452;41.572;23.732;2024-03-06T04:55:06;11.98;;;10.68;;
12776;SDS011;6452;41.572;23.732;2024-03-06T04:57:32;17.02;;;10.63;;
12776;SDS011;6452;41.572;23.732;2024-03-06T04:59:58;14.15;;;10.20;;
12776;SDS011;6452;41.572;23.732;2024-03-06T05:02:24;11.07;;;9.85;;
12776;SDS011;6452;41.572;23.732;2024-03-06T05:04:51;17.27;;;10.23;;
12776;SDS011;6452;41.572;23.732;2024-03-06T05:07:17;14.55;;;10.35;;
12776;SDS011;6452;41.572;23.732;2024-03-06T05:09:43;16.85;;;10.98;;
12776;SDS011;6452;41.572;23.732;2024-03-06T05:12:10;18.02;;;11.90;;
12776;SDS011;6452;41.572;23.732;2024-03-06T05:14:36;16.67;;;12.63;;
12776;SDS011;6452;41.572;23.732;2024-03-06T05:17:02;12.43;;;11.13;;
12776;SDS011;6452;41.572;23.732;2024-03-06T05:19:28;12.02;;;10.80;;
12776;SDS011;6452;41.572;23.732;2024-03-06T05:21:57;15.18;;;12.27;;
12776;SDS011;6452;41.572;23.732;2024-03-06T05:24:23;14.55;;;11.73;;
12776;SDS011;6452;41.572;23.732;2024-03-06T05:26:50;13.48;;;12.02;;
12776;SDS011;6452;41.572;23.732;2024-03-06T05:29:16;15.45;;;12.70;;
12776;SDS011;6452;41.572;23.732;2024-03-06T05:31:42;14.60;;;12.05;;
12776;SDS011;6452;41.572;23.732;2024-03-06T05:34:08;16.92;;;14.95;;
12776;SDS011;6452;41.572;23.732;2024-03-06T05:36:34;14.63;;;13.13;;
12776;SDS011;6452;41.572;23.732;2024-03-06T05:39:00;17.02;;;15.25;;
12776;SDS011;6452;41.572;23.732;2024-03-06T05:41:26;16.00;;;11.93;;
12776;SDS011;6452;41.572;23.732;2024-03-06T05:43:52;14.48;;;11.57;;
12776;SDS011;6452;41.572;23.732;2024-03-06T05:46:18;13.80;;;11.52;;
12776;SDS011;6452;41.572;23.732;2024-03-06T05:48:45;13.65;;;11.70;;
12776;SDS011;6452;41.572;23.732;2024-03-06T05:51:11;14.15;;;12.65;;
12776;SDS011;6452;41.572;23.732;2024-03-06T05:53:37;13.77;;;11.80;;
12776;SDS011;6452;41.572;23.732;2024-03-06T05:56:04;12.65;;;10.57;;
12776;SDS011;6452;41.572;23.732;2024-03-06T05:58:30;13.18;;;10.45;;
12776;SDS011;6452;41.572;23.732;2024-03-06T06:00:56;12.80;;;10.00;;
12776;SDS011;6452;41.572;23.732;2024-03-06T06:03:22;16.70;;;11.50;;
12776;SDS011;6452;41.572;23.732;2024-03-06T06:05:48;11.73;;;10.15;;
12776;SDS011;6452;41.572;23.732;2024-03-06T06:08:14;16.40;;;13.77;;
12776;SDS011;6452;41.572;23.732;2024-03-06T06:10:40;21.85;;;16.95;;
12776;SDS011;6452;41.572;23.732;2024-03-06T06:13:06;21.40;;;18.08;;
12776;SDS011;6452;41.572;23.732;2024-03-06T06:15:32;26.10;;;20.15;;
12776;SDS011;6452;41.572;23.732;2024-03-06T06:17:58;20.70;;;17.85;;
12776;SDS011;6452;41.572;23.732;2024-03-06T06:20:24;18.45;;;15.57;;
12776;SDS011;6452;41.572;23.732;2024-03-06T06:22:49;20.02;;;17.42;;
12776;SDS011;6452;41.572;23.732;2024-03-06T06:25:15;18.20;;;16.15;;
12776;SDS011;6452;41.572;23.732;2024-03-06T06:27:42;17.33;;;15.15;;
12776;SDS011;6452;41.572;23.732;2024-03-06T06:30:08;20.55;;;17.50;;
12776;SDS011;6452;41.572;23.732;2024-03-06T06:32:37;19.23;;;17.20;;
12776;SDS011;6452;41.572;23.732;2024-03-06T06:35:04;20.15;;;16.30;;
12776;SDS011;6452;41.572;23.732;2024-03-06T06:37:30;15.85;;;14.15;;
12776;SDS011;6452;41.572;23.732;2024-03-06T06:39:56;19.65;;;15.32;;
12776;SDS011;6452;41.572;23.732;2024-03-06T06:42:22;18.88;;;15.50;;
12776;SDS011;6452;41.572;23.732;2024-03-06T06:44:49;23.42;;;17.33;;
12776;SDS011;6452;41.572;23.732;2024-03-06T06:47:16;23.77;;;17.50;;
12776;SDS011;6452;41.572;23.732;2024-03-06T06:49:42;23.35;;;16.52;;
12776;SDS011;6452;41.572;23.732;2024-03-06T06:52:08;19.15;;;14.45;;
12776;SDS011;6452;41.572;23.732;2024-03-06T06:54:34;14.98;;;13.15;;
12776;SDS011;6452;41.572;23.732;2024-03-06T06:57:00;14.75;;;13.23;;
12776;SDS011;6452;41.572;23.732;2024-03-06T06:59:26;20.33;;;16.67;;
12776;SDS011;6452;41.572;23.732;2024-03-06T07:01:53;15.18;;;13.30;;
12776;SDS011;6452;41.572;23.732;2024-03-06T07:04:19;18.13;;;12.73;;
12776;SDS011;6452;41.572;23.732;2024-03-06T07:06:45;16.60;;;14.27;;
12776;SDS011;6452;41.572;23.732;2024-03-06T07:09:12;19.55;;;16.10;;
12776;SDS011;6452;41.572;23.732;2024-03-06T07:11:37;25.63;;;18.42;;
12776;SDS011;6452;41.572;23.732;2024-03-06T07:14:04;17.70;;;14.50;;
12776;SDS011;6452;41.572;23.732;2024-03-06T07:16:30;13.93;;;11.73;;
12776;SDS011;6452;41.572;23.732;2024-03-06T07:18:56;8.80;;;7.40;;
12776;SDS011;6452;41.572;23.732;2024-03-06T07:21:22;8.73;;;7.10;;
12776;SDS011;6452;41.572;23.732;2024-03-06T07:23:48;7.20;;;5.78;;
12776;SDS011;6452;41.572;23.732;2024-03-06T07:26:14;5.45;;;5.05;;
12776;SDS011;6452;41.572;23.732;2024-03-06T07:28:40;8.40;;;5.78;;
12776;SDS011;6452;41.572;23.732;2024-03-06T07:31:06;7.18;;;6.05;;
12776;SDS011;6452;41.572;23.732;2024-03-06T07:33:32;10.18;;;8.23;;
12776;SDS011;6452;41.572;23.732;2024-03-06T07:35:59;8.02;;;7.13;;
12776;SDS011;6452;41.572;23.732;2024-03-06T07:38:25;9.15;;;7.90;;
12776;SDS011;6452;41.572;23.732;2024-03-06T07:40:51;8.13;;;7.35;;
12776;SDS011;6452;41.572;23.732;2024-03-06T07:43:18;8.20;;;7.10;;
12776;SDS011;6452;41.572;23.732;2024-03-06T07:45:44;8.10;;;7.30;;
12776;SDS011;6452;41.572;23.732;2024-03-06T07:48:13;7.90;;;6.72;;
12776;SDS011;6452;41.572;23.732;2024-03-06T07:50:39;9.38;;;8.48;;
12776;SDS011;6452;41.572;23.732;2024-03-06T07:53:05;6.78;;;6.13;;
12776;SDS011;6452;41.572;23.732;2024-03-06T07:55:31;7.30;;;5.45;;
12776;SDS011;6452;41.572;23.732;2024-03-06T07:57:58;7.40;;;5.70;;
12776;SDS011;6452;41.572;23.732;2024-03-06T08:00:24;7.95;;;7.18;;
12776;SDS011;6452;41.572;23.732;2024-03-06T08:02:50;6.97;;;6.28;;
12776;SDS011;6452;41.572;23.732;2024-03-06T08:05:16;6.88;;;6.18;;
12776;SDS011;6452;41.572;23.732;2024-03-06T08:07:42;8.52;;;6.28;;
12776;SDS011;6452;41.572;23.732;2024-03-06T08:10:10;6.35;;;5.45;;
12776;SDS011;6452;41.572;23.732;2024-03-06T08:12:55;6.65;;;5.28;;
12776;SDS011;6452;41.572;23.732;2024-03-06T08:15:22;6.60;;;5.95;;
12776;SDS011;6452;41.572;23.732;2024-03-06T08:17:48;7.07;;;6.47;;
12776;SDS011;6452;41.572;23.732;2024-03-06T08:20:15;8.93;;;7.57;;
12776;SDS011;6452;41.572;23.732;2024-03-06T08:22:41;7.55;;;6.80;;
12776;SDS011;6452;41.572;23.732;2024-03-06T08:25:09;8.38;;;6.53;;
12776;SDS011;6452;41.572;23.732;2024-03-06T08:27:35;6.65;;;6.05;;
12776;SDS011;6452;41.572;23.732;2024-03-06T08:30:05;5.93;;;5.28;;
12776;SDS011;6452;41.572;23.732;2024-03-06T08:32:32;6.65;;;6.13;;
12776;SDS011;6452;41.572;23.732;2024-03-06T08:35:07;5.82;;;5.25;;
12776;SDS011;6452;41.572;23.732;2024-03-06T08:37:37;6.35;;;5.75;;
12776;SDS011;6452;41.572;23.732;2024-03-06T08:40:03;6.18;;;5.20;;
12776;SDS011;6452;41.572;23.732;2024-03-06T08:42:30;5.07;;;4.53;;
12776;SDS011;6452;41.572;23.732;2024-03-06T08:44:56;5.35;;;4.90;;
12776;SDS011;6452;41.572;23.732;2024-03-06T08:47:22;4.75;;;4.38;;
12776;SDS011;6452;41.572;23.732;2024-03-06T08:49:48;4.70;;;4.30;;
12776;SDS011;6452;41.572;23.732;2024-03-06T08:52:13;4.88;;;4.47;;
12776;SDS011;6452;41.572;23.732;2024-03-06T08:54:40;6.80;;;4.05;;
12776;SDS011;6452;41.572;23.732;2024-03-06T08:57:07;8.07;;;5.35;;
12776;SDS011;6452;41.572;23.732;2024-03-06T08:59:34;5.78;;;4.95;;
12776;SDS011;6452;41.572;23.732;2024-03-06T09:02:11;6.13;;;5.35;;
12776;SDS011;6452;41.572;23.732;2024-03-06T09:04:37;5.60;;;5.10;;
12776;SDS011;6452;41.572;23.732;2024-03-06T09:07:03;5.30;;;4.80;;
12776;SDS011;6452;41.572;23.732;2024-03-06T09:09:29;5.63;;;5.03;;
12776;SDS011;6452;41.572;23.732;2024-03-06T09:11:55;5.18;;;4.72;;
12776;SDS011;6452;41.572;23.732;2024-03-06T09:14:21;4.95;;;4.53;;
12776;SDS011;6452;41.572;23.732;2024-03-06T09:16:48;4.90;;;4.60;;
12776;SDS011;6452;41.572;23.732;2024-03-06T09:19:14;5.32;;;4.82;;
12776;SDS011;6452;41.572;23.732;2024-03-06T09:21:40;5.80;;;5.30;;
12776;SDS011;6452;41.572;23.732;2024-03-06T09:24:07;6.13;;;5.53;;
12776;SDS011;6452;41.572;23.732;2024-03-06T09:26:33;5.53;;;5.03;;
12776;SDS011;6452;41.572;23.732;2024-03-06T09:29:00;6.88;;;5.32;;
12776;SDS011;6452;41.572;23.732;2024-03-06T09:31:26;4.97;;;4.45;;
12776;SDS011;6452;41.572;23.732;2024-03-06T09:33:53;5.88;;;5.30;;
12776;SDS011;6452;41.572;23.732;2024-03-06T09:36:19;4.82;;;4.43;;
12776;SDS011;6452;41.572;23.732;2024-03-06T09:38:45;4.95;;;4.47;;
12776;SDS011;6452;41.572;23.732;2024-03-06T09:41:11;5.80;;;5.10;;
12776;SDS011;6452;41.572;23.732;2024-03-06T09:43:38;4.93;;;4.43;;
12776;SDS011;6452;41.572;23.732;2024-03-06T09:46:06;4.85;;;4.53;;
12776;SDS011;6452;41.572;23.732;2024-03-06T09:48:32;5.65;;;5.10;;
12776;SDS011;6452;41.572;23.732;2024-03-06T09:51:02;8.30;;;6.05;;
12776;SDS011;6452;41.572;23.732;2024-03-06T09:53:28;6.70;;;4.20;;
12776;SDS011;6452;41.572;23.732;2024-03-06T09:55:54;5.55;;;4.03;;
12776;SDS011;6452;41.572;23.732;2024-03-06T09:58:23;6.03;;;3.83;;
12776;SDS011;6452;41.572;23.732;2024-03-06T10:00:49;3.70;;;3.50;;
12776;SDS011;6452;41.572;23.732;2024-03-06T10:03:15;4.10;;;3.80;;
12776;SDS011;6452;41.572;23.732;2024-03-06T10:05:41;4.65;;;4.25;;
12776;SDS011;6452;41.572;23.732;2024-03-06T10:08:09;3.60;;;3.40;;
12776;SDS011;6452;41.572;23.732;2024-03-06T10:10:35;4.20;;;3.80;;
12776;SDS011;6452;41.572;23.732;2024-03-06T10:13:02;4.03;;;3.80;;
12776;SDS011;6452;41.572;23.732;2024-03-06T10:15:28;4.40;;;4.10;;
12776;SDS011;6452;41.572;23.732;2024-03-06T10:18:13;4.82;;;4.13;;
12776;SDS011;6452;41.572;23.732;2024-03-06T10:20:39;4.40;;;4.10;;
12776;SDS011;6452;41.572;23.732;2024-03-06T10:23:09;4.65;;;4.35;;
12776;SDS011;6452;41.572;23.732;2024-03-06T10:25:34;4.50;;;4.07;;
12776;SDS011;6452;41.572;23.732;2024-03-06T10:28:08;4.45;;;4.15;;
12776;SDS011;6452;41.572;23.732;2024-03-06T10:30:35;4.00;;;3.70;;
12776;SDS011;6452;41.572;23.732;2024-03-06T10:33:02;4.47;;;4.07;;
12776;SDS011;6452;41.572;23.732;2024-03-06T10:35:28;6.40;;;4.63;;
12776;SDS011;6452;41.572;23.732;2024-03-06T10:37:54;4.57;;;4.18;;
12776;SDS011;6452;41.572;23.732;2024-03-06T10:40:21;3.65;;;3.42;;
12776;SDS011;6452;41.572;23.732;2024-03-06T10:42:48;4.07;;;3.78;;
12776;SDS011;6452;41.572;23.732;2024-03-06T10:45:14;6.25;;;5.75;;
12776;SDS011;6452;41.572;23.732;2024-03-06T10:47:41;5.63;;;5.13;;
12776;SDS011;6452;41.572;23.732;2024-03-06T10:50:11;3.90;;;3.60;;
12776;SDS011;6452;41.572;23.732;2024-03-06T10:52:37;4.32;;;4.03;;
12776;SDS011;6452;41.572;23.732;2024-03-06T10:55:03;4.75;;;4.45;;
12776;SDS011;6452;41.572;23.732;2024-03-06T10:57:29;4.93;;;4.03;;
12776;SDS011;6452;41.572;23.732;2024-03-06T10:59:56;4.07;;;3.72;;
12776;SDS011;6452;41.572;23.732;2024-03-06T11:02:24;4.32;;;3.85;;
12776;SDS011;6452;41.572;23.732;2024-03-06T11:04:53;3.90;;;3.60;;
12776;SDS011;6452;41.572;23.732;2024-03-06T11:07:19;4.45;;;4.05;;
12776;SDS011;6452;41.572;23.732;2024-03-06T11:09:45;5.88;;;3.95;;
12776;SDS011;6452;41.572;23.732;2024-03-06T11:12:31;4.93;;;4.30;;
12776;SDS011;6452;41.572;23.732;2024-03-06T11:14:58;8.32;;;4.25;;
12776;SDS011;6452;41.572;23.732;2024-03-06T11:17:27;4.32;;;4.03;;
12776;SDS011;6452;41.572;23.732;2024-03-06T11:28:11;4.90;;;4.50;;
12776;SDS011;6452;41.572;23.732;2024-03-06T11:30:48;4.93;;;4.47;;
12776;SDS011;6452;41.572;23.732;2024-03-06T11:33:17;7.10;;;6.40;;
12776;SDS011;6452;41.572;23.732;2024-03-06T11:38:29;4.30;;;3.65;;
12776;SDS011;6452;41.572;23.732;2024-03-06T11:40:55;3.22;;;3.08;;
12776;SDS011;6452;41.572;23.732;2024-03-06T11:43:24;4.88;;;4.15;;
12776;SDS011;6452;41.572;23.732;2024-03-06T11:45:52;4.32;;;4.03;;
12776;SDS011;6452;41.572;23.732;2024-03-06T11:48:18;3.90;;;3.70;;
12776;SDS011;6452;41.572;23.732;2024-03-06T11:50:47;3.65;;;3.35;;
12776;SDS011;6452;41.572;23.732;2024-03-06T11:53:13;4.90;;;4.10;;
12776;SDS011;6452;41.572;23.732;2024-03-06T11:55:39;5.63;;;5.13;;
12776;SDS011;6452;41.572;23.732;2024-03-06T11:58:05;4.38;;;3.72;;
12776;SDS011;6452;41.572;23.732;2024-03-06T12:00:33;4.88;;;4.43;;
12776;SDS011;6452;41.572;23.732;2024-03-06T12:02:59;5.68;;;4.78;;
12776;SDS011;6452;41.572;23.732;2024-03-06T12:05:24;4.18;;;3.75;;
12776;SDS011;6452;41.572;23.732;2024-03-06T12:07:52;4.07;;;3.78;;
12776;SDS011;6452;41.572;23.732;2024-03-06T12:10:19;3.45;;;3.17;;
12776;SDS011;6452;41.572;23.732;2024-03-06T12:12:45;4.03;;;3.65;;
12776;SDS011;6452;41.572;23.732;2024-03-06T12:15:11;3.55;;;3.25;;
12776;SDS011;6452;41.572;23.732;2024-03-06T12:17:45;4.43;;;3.78;;
12776;SDS011;6452;41.572;23.732;2024-03-06T12:20:12;3.50;;;3.15;;
12776;SDS011;6452;41.572;23.732;2024-03-06T12:22:45;4.30;;;3.22;;
12776;SDS011;6452;41.572;23.732;2024-03-06T12:25:17;3.40;;;3.20;;
12776;SDS011;6452;41.572;23.732;2024-03-06T12:27:44;6.25;;;3.60;;
12776;SDS011;6452;41.572;23.732;2024-03-06T12:30:10;5.22;;;3.67;;
12776;SDS011;6452;41.572;23.732;2024-03-06T12:32:38;3.70;;;3.40;;
12776;SDS011;6452;41.572;23.732;2024-03-06T12:35:05;4.50;;;4.03;;
12776;SDS011;6452;41.572;23.732;2024-03-06T12:37:31;4.68;;;3.72;;
12776;SDS011;6452;41.572;23.732;2024-03-06T12:39:57;6.45;;;3.65;;
12776;SDS011;6452;41.572;23.732;2024-03-06T12:42:23;4.18;;;3.88;;
12776;SDS011;6452;41.572;23.732;2024-03-06T12:44:53;4.05;;;3.45;;
12776;SDS011;6452;41.572;23.732;2024-03-06T12:47:20;3.63;;;3.22;;
12776;SDS011;6452;41.572;23.732;2024-03-06T12:49:46;3.90;;;3.50;;
12776;SDS011;6452;41.572;23.732;2024-03-06T12:52:13;4.78;;;4.10;;
12776;SDS011;6452;41.572;23.732;2024-03-06T12:54:39;4.10;;;3.78;;
12776;SDS011;6452;41.572;23.732;2024-03-06T12:57:05;4.35;;;3.50;;
12776;SDS011;6452;41.572;23.732;2024-03-06T12:59:36;3.65;;;3.35;;
12776;SDS011;6452;41.572;23.732;2024-03-06T13:02:02;3.28;;;3.08;;
12776;SDS011;6452;41.572;23.732;2024-03-06T13:04:28;4.80;;;4.10;;
12776;SDS011;6452;41.572;23.732;2024-03-06T13:06:54;4.88;;;4.30;;
12776;SDS011;6452;41.572;23.732;2024-03-06T13:09:21;4.20;;;3.42;;
12776;SDS011;6452;41.572;23.732;2024-03-06T13:11:48;6.70;;;3.95;;
12776;SDS011;6452;41.572;23.732;2024-03-06T13:14:14;3.90;;;3.17;;
12776;SDS011;6452;41.572;23.732;2024-03-06T13:16:40;4.15;;;3.45;;
12776;SDS011;6452;41.572;23.732;2024-03-06T13:19:07;4.57;;;4.28;;
12776;SDS011;6452;41.572;23.732;2024-03-06T13:21:33;6.18;;;3.60;;
12776;SDS011;6452;41.572;23.732;2024-03-06T13:23:59;3.85;;;3.45;;
12776;SDS011;6452;41.572;23.732;2024-03-06T13:26:25;5.40;;;2.85;;
12776;SDS011;6452;41.572;23.732;2024-03-06T13:28:52;3.15;;;2.95;;
12776;SDS011;6452;41.572;23.732;2024-03-06T13:31:18;3.40;;;3.10;;
12776;SDS011;6452;41.572;23.732;2024-03-06T13:33:44;5.07;;;2.60;;
12776;SDS011;6452;41.572;23.732;2024-03-06T13:36:10;3.92;;;3.63;;
12776;SDS011;6452;41.572;23.732;2024-03-06T13:38:36;3.25;;;3.00;;
12776;SDS011;6452;41.572;23.732;2024-03-06T13:41:03;3.53;;;3.22;;
12776;SDS011;6452;41.572;23.732;2024-03-06T13:43:30;3.97;;;3.58;;
12776;SDS011;6452;41.572;23.732;2024-03-06T13:45:57;6.03;;;3.67;;
12776;SDS011;6452;41.572;23.732;2024-03-06T13:48:23;5.57;;;3.97;;
12776;SDS011;6452;41.572;23.732;2024-03-06T13:50:49;4.95;;;3.83;;
12776;SDS011;6452;41.572;23.732;2024-03-06T13:53:15;3.75;;;3.22;;
12776;SDS011;6452;41.572;23.732;2024-03-06T13:55:41;7.38;;;4.15;;
12776;SDS011;6452;41.572;23.732;2024-03-06T13:58:08;5.03;;;4.63;;
12776;SDS011;6452;41.572;23.732;2024-03-06T14:00:34;5.18;;;4.18;;
12776;SDS011;6452;41.572;23.732;2024-03-06T14:03:00;4.43;;;4.13;;
12776;SDS011;6452;41.572;23.732;2024-03-06T14:05:30;4.38;;;4.00;;
12776;SDS011;6452;41.572;23.732;2024-03-06T14:07:56;3.95;;;3.65;;
12776;SDS011;6452;41.572;23.732;2024-03-06T14:10:23;4.22;;;3.88;;
12776;SDS011;6452;41.572;23.732;2024-03-06T14:12:49;4.43;;;4.03;;
12776;SDS011;6452;41.572;23.732;2024-03-06T14:15:18;4.25;;;3.92;;
12776;SDS011;6452;41.572;23.732;2024-03-06T14:17:45;5.53;;;5.03;;
12776;SDS011;6452;41.572;23.732;2024-03-06T14:20:11;7.00;;;5.68;;
12776;SDS011;6452;41.572;23.732;2024-03-06T14:22:43;4.47;;;4.18;;
12776;SDS011;6452;41.572;23.732;2024-03-06T14:25:10;21.42;;;12.60;;
12776;SDS011;6452;41.572;23.732;2024-03-06T14:27:36;13.43;;;9.57;;
12776;SDS011;6452;41.572;23.732;2024-03-06T14:30:02;8.13;;;4.60;;
12776;SDS011;6452;41.572;23.732;2024-03-06T14:32:29;7.25;;;5.20;;
12776;SDS011;6452;41.572;23.732;2024-03-06T14:34:55;5.32;;;4.65;;
12776;SDS011;6452;41.572;23.732;2024-03-06T14:37:21;8.55;;;6.45;;
12776;SDS011;6452;41.572;23.732;2024-03-06T14:39:47;7.30;;;5.60;;
12776;SDS011;6452;41.572;23.732;2024-03-06T14:42:13;6.85;;;6.00;;
12776;SDS011;6452;41.572;23.732;2024-03-06T14:44:40;5.78;;;5.28;;
12776;SDS011;6452;41.572;23.732;2024-03-06T14:47:07;6.60;;;5.50;;
12776;SDS011;6452;41.572;23.732;2024-03-06T14:49:33;7.13;;;5.43;;